createdAt,value
2023-05-16T00:01:45.545Z,10.40
2023-05-16T00:04:13.211Z,10.40
2023-05-16T00:06:40.674Z,10.40
2023-05-16T00:09:07.901Z,10.40
2023-05-16T00:11:35.157Z,10.40
2023-05-16T00:14:02.798Z,10.40
2023-05-16T00:16:30.467Z,10.40
2023-05-16T00:18:58.036Z,10.40
2023-05-16T00:21:25.476Z,10.40
2023-05-16T00:23:53.023Z,10.30
2023-05-16T00:26:20.741Z,10.30
2023-05-16T00:28:48.120Z,10.30
2023-05-16T00:31:15.501Z,10.30
2023-05-16T00:33:42.845Z,10.30
2023-05-16T00:36:10.018Z,10.30
2023-05-16T00:38:37.593Z,10.20
2023-05-16T00:41:04.897Z,10.20
2023-05-16T00:43:32.132Z,10.20
2023-05-16T00:46:00.552Z,10.20
2023-05-16T00:48:27.929Z,10.20
2023-05-16T00:50:55.169Z,10.20
2023-05-16T00:53:24.444Z,10.20
2023-05-16T00:55:52.239Z,10.20
2023-05-16T00:58:20.150Z,10.20
2023-05-16T01:00:48.763Z,10.20
2023-05-16T01:03:16.549Z,10.10
2023-05-16T01:05:44.065Z,10.10
2023-05-16T01:08:13.170Z,10.10
2023-05-16T01:10:50.635Z,10.10
2023-05-16T01:13:53.384Z,10.10
2023-05-16T01:16:37.613Z,10.10
2023-05-16T01:19:20.708Z,10.10
2023-05-16T01:22:15.515Z,10.10
2023-05-16T01:25:11.946Z,10.10
2023-05-16T01:27:41.459Z,10.00
2023-05-16T01:30:15.951Z,10.00
2023-05-16T01:32:43.772Z,10.00
2023-05-16T01:35:13.139Z,10.00
2023-05-16T01:37:42.974Z,10.00
2023-05-16T01:40:21.478Z,10.00
2023-05-16T01:42:52.348Z,10.10
2023-05-16T01:45:29.234Z,10.10
2023-05-16T01:48:07.252Z,10.10
2023-05-16T01:50:42.484Z,10.10
2023-05-16T01:53:15.792Z,10.10
2023-05-16T01:55:47.328Z,10.10
2023-05-16T01:58:17.280Z,10.10
2023-05-16T02:00:44.974Z,10.10
2023-05-16T02:03:12.490Z,10.10
2023-05-16T02:05:39.918Z,10.10
2023-05-16T02:08:08.747Z,10.10
2023-05-16T02:10:35.982Z,10.10
2023-05-16T02:13:03.188Z,10.10
2023-05-16T02:15:30.514Z,10.10
2023-05-16T02:17:58.665Z,10.10
2023-05-16T02:20:26.060Z,10.10
2023-05-16T02:22:53.333Z,10.00
2023-05-16T02:25:20.611Z,10.00
2023-05-16T02:27:47.817Z,10.00
2023-05-16T02:30:15.055Z,10.10
2023-05-16T02:32:45.069Z,10.00
2023-05-16T02:35:12.613Z,10.00
2023-05-16T02:37:41.061Z,10.00
2023-05-16T02:40:09.245Z,10.00
2023-05-16T02:42:37.331Z,10.00
2023-05-16T02:45:04.970Z,10.00
2023-05-16T02:47:32.228Z,10.00
2023-05-16T02:50:00.350Z,10.00
2023-05-16T02:52:27.515Z,9.90
2023-05-16T02:55:09.949Z,9.90
2023-05-16T02:57:42.788Z,9.90
2023-05-16T03:00:14.822Z,9.90
2023-05-16T03:02:43.728Z,9.90
2023-05-16T03:05:11.526Z,10.00
2023-05-16T03:07:39.235Z,10.00
2023-05-16T03:10:07.253Z,10.00
2023-05-16T03:12:34.429Z,10.00
2023-05-16T03:15:01.900Z,9.90
2023-05-16T03:17:30.078Z,9.90
2023-05-16T03:19:57.869Z,9.90
2023-05-16T03:22:25.090Z,9.90
2023-05-16T03:24:52.319Z,9.90
2023-05-16T03:27:19.533Z,9.90
2023-05-16T03:29:46.727Z,10.00
2023-05-16T03:32:13.957Z,10.20
2023-05-16T03:34:41.199Z,10.20
2023-05-16T03:37:10.899Z,10.30
2023-05-16T03:39:38.084Z,10.30
2023-05-16T03:42:05.789Z,10.30
2023-05-16T03:44:33.038Z,10.20
2023-05-16T03:47:00.307Z,10.20
2023-05-16T03:49:30.436Z,10.20
2023-05-16T03:51:57.760Z,10.10
2023-05-16T03:54:24.999Z,10.10
2023-05-16T03:56:52.279Z,10.10
2023-05-16T03:59:19.581Z,10.10
2023-05-16T04:01:47.131Z,10.10
2023-05-16T04:04:14.379Z,10.10
2023-05-16T04:06:41.593Z,10.20
2023-05-16T04:09:09.566Z,10.20
2023-05-16T04:11:38.696Z,10.20
2023-05-16T04:14:06.145Z,10.20
2023-05-16T04:16:33.405Z,10.20
2023-05-16T04:19:00.662Z,10.30
2023-05-16T04:21:27.865Z,10.30
2023-05-16T04:23:55.078Z,10.40
2023-05-16T04:26:22.620Z,10.40
2023-05-16T04:28:49.819Z,10.40
2023-05-16T04:31:17.238Z,10.50
2023-05-16T04:33:44.524Z,10.50
2023-05-16T04:36:12.358Z,10.50
2023-05-16T04:38:39.614Z,10.50
2023-05-16T04:41:07.102Z,10.60
2023-05-16T04:43:35.099Z,10.60
2023-05-16T04:46:02.287Z,10.70
2023-05-16T04:48:29.684Z,10.70
2023-05-16T04:50:57.524Z,10.80
2023-05-16T04:53:24.730Z,10.90
2023-05-16T04:55:52.607Z,10.90
2023-05-16T04:58:19.846Z,11.00
2023-05-16T05:00:47.517Z,11.00
2023-05-16T05:03:14.749Z,11.10
2023-05-16T05:05:41.934Z,11.20
2023-05-16T05:08:09.800Z,11.20
2023-05-16T05:10:36.994Z,11.30
2023-05-16T05:13:04.235Z,11.30
2023-05-16T05:15:31.393Z,11.40
2023-05-16T05:17:58.794Z,11.40
2023-05-16T05:20:26.666Z,11.50
2023-05-16T05:22:53.882Z,11.60
2023-05-16T05:25:21.106Z,11.60
2023-05-16T05:27:48.449Z,11.70
2023-05-16T05:30:16.218Z,11.80
2023-05-16T05:32:43.564Z,11.80
2023-05-16T05:35:11.167Z,11.90
2023-05-16T05:37:38.437Z,12.00
2023-05-16T05:40:06.475Z,12.20
2023-05-16T05:42:33.929Z,12.30
2023-05-16T05:45:01.131Z,12.40
2023-05-16T05:47:28.429Z,12.50
2023-05-16T05:49:56.006Z,12.60
2023-05-16T05:52:23.420Z,12.60
2023-05-16T05:54:50.830Z,12.60
2023-05-16T05:57:18.059Z,12.70
2023-05-16T05:59:45.305Z,12.70
2023-05-16T06:02:13.165Z,12.80
2023-05-16T06:04:42.623Z,12.80
2023-05-16T06:07:09.744Z,12.80
2023-05-16T06:09:36.919Z,12.80
2023-05-16T06:12:04.531Z,12.90
2023-05-16T06:14:32.215Z,13.00
2023-05-16T06:16:59.489Z,13.00
2023-05-16T06:19:26.965Z,13.10
2023-05-16T06:21:54.300Z,13.20
2023-05-16T06:24:21.575Z,13.40
2023-05-16T06:26:50.249Z,13.60
2023-05-16T06:29:17.502Z,13.90
2023-05-16T06:31:46.336Z,14.20
2023-05-16T06:34:13.628Z,14.50
2023-05-16T06:36:41.049Z,14.90
2023-05-16T06:39:08.265Z,14.90
2023-05-16T06:41:35.585Z,14.90
2023-05-16T06:44:05.023Z,14.90
2023-05-16T06:46:32.793Z,14.90
2023-05-16T06:49:00.113Z,15.00
2023-05-16T06:51:27.351Z,15.40
2023-05-16T06:53:54.581Z,15.80
2023-05-16T06:56:21.852Z,15.90
2023-05-16T06:58:49.617Z,15.70
2023-05-16T07:01:17.241Z,15.50
2023-05-16T07:03:44.692Z,15.30
2023-05-16T07:06:12.026Z,15.10
2023-05-16T07:08:39.341Z,15.00
2023-05-16T07:11:06.584Z,15.00
2023-05-16T07:13:35.808Z,15.00
2023-05-16T07:16:04.000Z,15.10
2023-05-16T07:18:31.318Z,15.40
2023-05-16T07:20:58.714Z,15.40
2023-05-16T07:23:26.302Z,15.40
2023-05-16T07:25:53.553Z,15.60
2023-05-16T07:28:22.107Z,15.90
2023-05-16T07:30:49.741Z,16.10
2023-05-16T07:33:17.087Z,16.10
2023-05-16T07:35:44.489Z,16.10
2023-05-16T07:38:11.825Z,16.10
2023-05-16T07:40:39.108Z,16.00
2023-05-16T07:43:06.353Z,16.00
2023-05-16T07:45:33.648Z,16.10
2023-05-16T07:48:01.019Z,16.10
2023-05-16T07:50:28.382Z,16.20
2023-05-16T07:52:55.760Z,16.20
2023-05-16T07:55:23.373Z,16.20
2023-05-16T07:57:50.947Z,16.40
2023-05-16T08:00:18.897Z,16.50
2023-05-16T08:02:46.256Z,16.70
2023-05-16T08:05:13.644Z,16.70
2023-05-16T08:07:40.980Z,16.80
2023-05-16T08:10:09.434Z,17.10
2023-05-16T08:12:37.594Z,17.40
2023-05-16T08:15:07.717Z,17.80
2023-05-16T08:17:35.043Z,18.00
2023-05-16T08:20:02.395Z,18.00
2023-05-16T08:22:29.608Z,17.90
2023-05-16T08:24:57.833Z,17.70
2023-05-16T08:27:25.457Z,17.30
2023-05-16T08:29:52.686Z,17.10
2023-05-16T08:32:21.290Z,17.30
2023-05-16T08:34:48.666Z,17.60
2023-05-16T08:37:17.306Z,18.10
2023-05-16T08:39:44.889Z,18.50
2023-05-16T08:42:12.261Z,18.60
2023-05-16T08:44:39.649Z,18.80
2023-05-16T08:47:19.109Z,19.30
2023-05-16T08:49:48.514Z,19.60
2023-05-16T08:52:19.385Z,20.00
2023-05-16T08:54:55.245Z,20.10
2023-05-16T08:57:34.041Z,19.80
2023-05-16T09:00:01.431Z,19.30
2023-05-16T09:02:28.930Z,19.20
2023-05-16T09:04:58.061Z,19.30
2023-05-16T09:07:25.518Z,19.70
2023-05-16T09:09:54.994Z,21.00
2023-05-16T09:12:22.362Z,22.90
2023-05-16T09:14:49.654Z,24.40
2023-05-16T09:17:20.532Z,24.60
2023-05-16T09:19:58.036Z,23.40
2023-05-16T09:22:25.555Z,22.00
2023-05-16T09:24:52.754Z,21.00
2023-05-16T09:27:20.349Z,20.20
2023-05-16T09:29:52.023Z,19.40
2023-05-16T09:32:19.363Z,20.90
2023-05-16T09:34:49.282Z,24.10
2023-05-16T09:37:16.822Z,26.90
2023-05-16T09:39:49.191Z,29.30
2023-05-16T09:42:17.765Z,29.40
2023-05-16T09:44:50.781Z,29.50
2023-05-16T09:47:19.398Z,29.90
2023-05-16T09:49:48.367Z,30.40
2023-05-16T09:52:16.678Z,31.40
2023-05-16T09:54:43.914Z,30.70
2023-05-16T09:57:11.095Z,30.00
2023-05-16T09:59:39.926Z,29.90
2023-05-16T10:02:07.886Z,28.90
2023-05-16T10:04:38.538Z,27.10
2023-05-16T10:07:06.889Z,25.40
2023-05-16T10:09:36.281Z,24.10
2023-05-16T10:12:06.507Z,23.60
2023-05-16T10:14:37.982Z,23.40
2023-05-16T10:17:07.675Z,22.90
2023-05-16T10:19:40.156Z,22.40
2023-05-16T10:22:08.361Z,22.10
2023-05-16T10:24:54.921Z,22.20
2023-05-16T10:27:22.924Z,22.60
2023-05-16T10:29:54.852Z,22.90
2023-05-16T10:32:27.460Z,22.70
2023-05-16T10:34:56.142Z,24.70
2023-05-16T10:37:24.847Z,27.30
2023-05-16T10:39:52.719Z,28.20
2023-05-16T10:42:22.519Z,27.60
2023-05-16T10:45:01.949Z,26.70
2023-05-16T10:47:32.998Z,25.80
2023-05-16T10:50:00.353Z,25.10
2023-05-16T10:52:35.383Z,24.60
2023-05-16T10:55:04.852Z,25.10
2023-05-16T10:57:34.274Z,26.30
2023-05-16T11:00:03.766Z,26.60
2023-05-16T11:02:41.413Z,26.00
2023-05-16T11:05:17.859Z,25.30
2023-05-16T11:08:02.816Z,24.60
2023-05-16T11:10:30.268Z,23.50
2023-05-16T11:13:04.010Z,22.50
2023-05-16T11:15:34.709Z,22.00
2023-05-16T11:18:08.930Z,21.80
2023-05-16T11:20:38.519Z,22.50
2023-05-16T11:23:22.961Z,23.20
2023-05-16T11:25:56.964Z,23.30
2023-05-16T11:28:25.816Z,23.00
2023-05-16T11:30:56.654Z,22.60
2023-05-16T11:33:24.785Z,22.60
2023-05-16T11:38:43.392Z,24.40
2023-05-16T11:41:11.513Z,25.40
2023-05-16T11:43:44.029Z,25.80
2023-05-16T11:46:12.612Z,25.80
2023-05-16T11:48:40.448Z,25.40
2023-05-16T11:51:08.871Z,25.00
2023-05-16T11:53:38.151Z,25.40
2023-05-16T11:56:08.481Z,26.60
2023-05-16T11:58:36.898Z,26.80
2023-05-16T12:01:05.421Z,25.70
2023-05-16T12:03:35.654Z,25.40
2023-05-16T12:06:03.359Z,28.10
2023-05-16T12:08:30.820Z,31.10
2023-05-16T12:10:58.713Z,33.70
2023-05-16T12:13:26.212Z,34.50
2023-05-16T12:15:54.072Z,35.00
2023-05-16T12:18:21.998Z,34.30
2023-05-16T12:20:49.708Z,31.50
2023-05-16T12:23:16.974Z,28.90
2023-05-16T12:25:49.491Z,28.80
2023-05-16T12:28:17.169Z,28.90
2023-05-16T12:30:47.715Z,28.00
2023-05-16T12:33:16.176Z,26.80
2023-05-16T12:35:45.414Z,25.50
2023-05-16T12:38:14.866Z,24.20
2023-05-16T12:40:43.923Z,23.30
2023-05-16T12:43:19.127Z,22.70
2023-05-16T12:45:53.352Z,22.60
2023-05-16T12:48:23.582Z,22.60
2023-05-16T12:50:51.045Z,22.30
2023-05-16T12:53:18.997Z,22.20
2023-05-16T12:55:46.413Z,22.70
2023-05-16T12:58:13.935Z,22.60
2023-05-16T13:00:41.274Z,22.50
2023-05-16T13:03:08.627Z,22.30
2023-05-16T13:05:39.030Z,21.90
2023-05-16T13:08:07.335Z,21.60
2023-05-16T13:10:34.597Z,22.10
2023-05-16T13:13:02.565Z,23.70
2023-05-16T13:15:31.722Z,24.50
2023-05-16T13:17:59.148Z,25.10
2023-05-16T13:20:26.584Z,25.20
2023-05-16T13:22:53.866Z,25.70
2023-05-16T13:25:21.199Z,25.80
2023-05-16T13:27:49.379Z,26.60
2023-05-16T13:30:16.734Z,28.30
2023-05-16T13:32:44.304Z,28.70
2023-05-16T13:35:11.647Z,29.00
2023-05-16T13:37:39.338Z,29.80
2023-05-16T13:40:10.482Z,29.00
2023-05-16T13:42:38.680Z,27.40
2023-05-16T13:45:07.109Z,26.90
2023-05-16T13:47:34.554Z,26.50
2023-05-16T13:50:06.110Z,26.80
2023-05-16T13:52:35.018Z,27.00
2023-05-16T13:55:03.496Z,26.60
2023-05-16T13:57:31.558Z,25.90
2023-05-16T14:00:24.896Z,25.80
2023-05-16T14:02:46.729Z,25.80
2023-05-16T14:05:16.030Z,25.70
2023-05-16T14:07:45.378Z,25.60
2023-05-16T14:10:14.008Z,25.50
2023-05-16T14:12:41.299Z,25.40
2023-05-16T14:15:09.049Z,25.50
2023-05-16T14:17:36.441Z,25.80
2023-05-16T14:20:08.863Z,25.50
2023-05-16T14:22:37.336Z,24.70
2023-05-16T14:25:06.155Z,24.60
2023-05-16T14:27:33.487Z,24.40
2023-05-16T14:30:01.141Z,25.00
2023-05-16T14:32:28.508Z,25.10
2023-05-16T14:34:55.837Z,24.50
2023-05-16T14:37:23.097Z,23.90
2023-05-16T14:39:50.676Z,23.80
2023-05-16T14:42:21.019Z,24.10
2023-05-16T14:44:48.322Z,23.90
2023-05-16T14:47:15.534Z,23.30
2023-05-16T14:49:42.739Z,23.20
2023-05-16T14:52:10.106Z,23.00
2023-05-16T14:54:37.352Z,22.50
2023-05-16T14:57:04.969Z,21.70
2023-05-16T14:59:32.228Z,20.80
2023-05-16T15:01:59.986Z,20.00
2023-05-16T15:04:28.092Z,19.40
2023-05-16T15:06:55.836Z,18.70
2023-05-16T15:09:23.240Z,18.70
2023-05-16T15:11:50.638Z,18.60
2023-05-16T15:14:17.920Z,18.40
2023-05-16T15:16:47.174Z,18.30
2023-05-16T15:19:14.565Z,17.90
2023-05-16T15:21:41.793Z,17.60
2023-05-16T15:24:09.183Z,17.20
2023-05-16T15:26:36.665Z,16.80
2023-05-16T15:29:03.853Z,16.50
2023-05-16T15:31:32.161Z,16.40
2023-05-16T15:33:59.553Z,16.20
2023-05-16T15:36:26.922Z,16.10
2023-05-16T15:38:54.236Z,16.10
2023-05-16T15:41:37.283Z,16.10
2023-05-16T15:44:09.132Z,16.00
2023-05-16T15:46:36.427Z,15.90
2023-05-16T15:49:03.718Z,15.90
2023-05-16T15:51:30.940Z,16.10
2023-05-16T15:53:58.175Z,16.60
2023-05-16T15:56:25.726Z,17.10
2023-05-16T15:58:55.666Z,17.40
2023-05-16T16:01:22.959Z,17.70
2023-05-16T16:03:50.458Z,18.40
2023-05-16T16:06:17.975Z,19.00
2023-05-16T16:08:45.478Z,19.80
2023-05-16T16:11:12.729Z,20.30
2023-05-16T16:13:39.944Z,19.90
2023-05-16T16:16:07.369Z,19.30
2023-05-16T16:18:34.737Z,19.10
2023-05-16T16:21:02.093Z,19.30
2023-05-16T16:23:30.837Z,19.70
2023-05-16T16:25:58.056Z,20.20
2023-05-16T16:28:25.361Z,20.80
2023-05-16T16:30:52.719Z,20.90
2023-05-16T16:33:19.976Z,20.90
2023-05-16T16:35:47.295Z,20.80
2023-05-16T16:38:14.637Z,20.50
2023-05-16T16:40:41.968Z,20.60
2023-05-16T16:43:09.889Z,20.30
2023-05-16T16:45:37.163Z,19.90
2023-05-16T16:48:04.724Z,19.80
2023-05-16T16:50:34.226Z,19.80
2023-05-16T16:53:01.891Z,19.80
2023-05-16T16:55:29.363Z,19.80
2023-05-16T16:57:56.869Z,19.70
2023-05-16T17:00:24.524Z,19.40
2023-05-16T17:02:51.955Z,19.20
2023-05-16T17:05:19.383Z,19.00
2023-05-16T17:07:46.644Z,18.80
2023-05-16T17:10:13.986Z,18.50
2023-05-16T17:12:46.839Z,18.30
2023-05-16T17:15:14.090Z,18.00
2023-05-16T17:17:41.362Z,17.90
2023-05-16T17:20:10.023Z,17.80
2023-05-16T17:22:37.387Z,17.70
2023-05-16T17:25:05.675Z,17.70
2023-05-16T17:27:33.074Z,17.60
2023-05-16T17:30:00.603Z,17.40
2023-05-16T17:32:28.158Z,17.20
2023-05-16T17:34:55.506Z,16.90
2023-05-16T17:37:22.812Z,16.80
2023-05-16T17:39:50.156Z,16.70
2023-05-16T17:42:17.377Z,16.80
2023-05-16T17:44:44.687Z,16.90
2023-05-16T17:47:12.022Z,16.90
2023-05-16T17:49:39.406Z,17.00
2023-05-16T17:52:07.180Z,17.00
2023-05-16T17:54:34.391Z,16.90
2023-05-16T17:57:01.682Z,16.80
2023-05-16T17:59:30.000Z,16.80
2023-05-16T18:01:59.979Z,16.90
2023-05-16T18:04:27.565Z,16.90
2023-05-16T18:06:56.108Z,17.00
2023-05-16T18:09:24.232Z,17.00
2023-05-16T18:11:51.576Z,17.00
2023-05-16T18:14:19.140Z,17.10
2023-05-16T18:16:47.584Z,17.10
2023-05-16T18:19:14.999Z,17.10
2023-05-16T18:21:44.253Z,17.10
2023-05-16T18:24:13.153Z,16.90
2023-05-16T18:26:47.904Z,16.20
2023-05-16T18:29:15.276Z,16.10
2023-05-16T18:31:42.679Z,16.10
2023-05-16T18:34:12.349Z,16.00
2023-05-16T18:36:39.636Z,15.90
2023-05-16T18:39:07.162Z,15.80
2023-05-16T18:41:34.513Z,15.70
2023-05-16T18:44:02.136Z,15.70
2023-05-16T18:46:29.384Z,15.60
2023-05-16T18:48:57.860Z,15.40
2023-05-16T18:51:25.636Z,15.20
2023-05-16T18:53:53.013Z,15.00
2023-05-16T18:56:21.811Z,14.80
2023-05-16T18:58:49.143Z,14.70
2023-05-16T19:01:16.438Z,14.60
2023-05-16T19:03:43.875Z,14.50
2023-05-16T19:06:11.435Z,14.40
2023-05-16T19:08:47.704Z,14.40
2023-05-16T19:11:17.430Z,14.30
2023-05-16T19:13:47.686Z,14.30
2023-05-16T19:16:15.327Z,14.20
2023-05-16T19:18:42.757Z,14.10
2023-05-16T19:21:13.154Z,13.90
2023-05-16T19:23:40.669Z,13.90
2023-05-16T19:26:07.969Z,13.80
2023-05-16T19:28:35.346Z,13.70
2023-05-16T19:31:02.685Z,13.60
2023-05-16T19:33:29.989Z,13.50
2023-05-16T19:35:58.336Z,13.50
2023-05-16T19:38:26.315Z,13.40
2023-05-16T19:40:53.706Z,13.30
2023-05-16T19:43:21.052Z,13.30
2023-05-16T19:45:48.256Z,13.20
2023-05-16T19:48:16.244Z,13.20
2023-05-16T19:50:43.654Z,13.10
2023-05-16T19:53:11.106Z,13.10
2023-05-16T19:55:38.357Z,13.10
2023-05-16T19:58:05.697Z,13.00
2023-05-16T20:00:33.025Z,13.00
2023-05-16T20:03:00.457Z,13.00
2023-05-16T20:05:27.984Z,12.90
2023-05-16T20:07:56.001Z,12.90
2023-05-16T20:10:23.482Z,12.90
2023-05-16T20:12:51.368Z,12.80
2023-05-16T20:15:18.842Z,12.80
2023-05-16T20:17:46.280Z,12.80
2023-05-16T20:20:13.626Z,12.80
2023-05-16T20:22:41.502Z,12.80
2023-05-16T20:25:10.348Z,12.80
2023-05-16T20:27:38.189Z,12.70
2023-05-16T20:30:06.949Z,12.70
2023-05-16T20:32:34.783Z,12.70
2023-05-16T20:35:04.303Z,12.70
2023-05-16T20:37:31.536Z,12.70
2023-05-16T20:39:58.795Z,12.70
2023-05-16T20:42:26.156Z,12.60
2023-05-16T20:44:53.469Z,12.70
2023-05-16T20:47:20.789Z,12.60
2023-05-16T20:49:48.010Z,12.60
2023-05-16T20:52:15.393Z,12.60
2023-05-16T20:54:42.613Z,12.60
2023-05-16T20:57:10.005Z,12.60
2023-05-16T20:59:37.590Z,12.50
2023-05-16T21:02:06.153Z,12.50
2023-05-16T21:04:33.809Z,12.50
2023-05-16T21:07:01.065Z,12.50
2023-05-16T21:09:28.330Z,12.40
2023-05-16T21:11:55.848Z,12.40
2023-05-16T21:14:23.114Z,12.40
2023-05-16T21:16:52.146Z,12.40
2023-05-16T21:19:19.564Z,12.40
2023-05-16T21:21:46.955Z,12.40
2023-05-16T21:24:14.360Z,12.40
2023-05-16T21:26:41.660Z,12.30
2023-05-16T21:29:08.880Z,12.30
2023-05-16T21:31:36.087Z,12.30
2023-05-16T21:34:03.548Z,12.30
2023-05-16T21:36:33.225Z,12.30
2023-05-16T21:39:00.516Z,12.30
2023-05-16T21:41:30.272Z,12.30
2023-05-16T21:43:57.519Z,12.30
2023-05-16T21:46:24.852Z,12.30
2023-05-16T21:48:52.163Z,12.30
2023-05-16T21:51:19.599Z,12.30
2023-05-16T21:53:46.884Z,12.40
2023-05-16T21:56:14.137Z,12.40
2023-05-16T21:58:42.418Z,12.40
2023-05-16T22:01:10.157Z,12.30
2023-05-16T22:03:37.572Z,12.40
2023-05-16T22:06:05.266Z,12.30
2023-05-16T22:08:32.526Z,12.40
2023-05-16T22:10:59.734Z,12.30
2023-05-16T22:13:26.996Z,12.40
2023-05-16T22:16:04.069Z,12.30
2023-05-16T22:18:33.441Z,12.40
2023-05-16T22:21:01.767Z,12.30
2023-05-16T22:23:29.102Z,12.30
2023-05-16T22:25:56.419Z,12.30
2023-05-16T22:28:23.722Z,12.30
2023-05-16T22:30:50.977Z,12.30
2023-05-16T22:33:18.317Z,12.30
2023-05-16T22:35:45.616Z,12.30
2023-05-16T22:38:12.835Z,12.30
2023-05-16T22:40:41.143Z,12.30
2023-05-16T22:43:08.481Z,12.20
2023-05-16T22:45:35.728Z,12.30
2023-05-16T22:48:03.101Z,12.20
2023-05-16T22:50:30.397Z,12.30
2023-05-16T22:52:57.641Z,12.20
2023-05-16T22:55:25.009Z,12.30
2023-05-16T22:57:54.617Z,12.20
2023-05-16T23:00:25.216Z,12.20
2023-05-16T23:02:52.693Z,12.20
2023-05-16T23:05:20.993Z,12.20
2023-05-16T23:07:48.226Z,12.20
2023-05-16T23:10:15.605Z,12.20
2023-05-16T23:12:42.834Z,12.20
2023-05-16T23:15:10.636Z,12.20
2023-05-16T23:17:38.491Z,12.20
2023-05-16T23:20:07.291Z,12.20
2023-05-16T23:22:34.578Z,12.20
2023-05-16T23:25:01.922Z,12.20
2023-05-16T23:27:29.173Z,12.20
2023-05-16T23:29:56.408Z,12.20
2023-05-16T23:32:23.774Z,12.20
2023-05-16T23:34:51.156Z,12.20
2023-05-16T23:37:18.410Z,12.20
2023-05-16T23:39:45.650Z,12.20
2023-05-16T23:42:13.055Z,12.20
2023-05-16T23:44:41.736Z,12.30
2023-05-16T23:47:09.302Z,12.30
2023-05-16T23:49:38.722Z,12.30
2023-05-16T23:52:06.263Z,12.30
2023-05-16T23:54:34.000Z,12.30
2023-05-16T23:57:01.337Z,12.20
2023-05-16T23:59:28.611Z,12.20
